createdAt,value
2022-08-17T00:01:27.759Z,84.33
2022-08-17T00:06:35.829Z,85.77
2022-08-17T00:12:35.010Z,86.84
2022-08-17T00:17:09.819Z,89.51
2022-08-17T00:22:31.501Z,88.08
2022-08-17T00:27:40.979Z,88.21
2022-08-17T00:33:23.110Z,87.23
2022-08-17T00:38:15.613Z,86.76
2022-08-17T00:43:24.100Z,87.48
2022-08-17T00:48:30.451Z,87.18
2022-08-17T00:53:45.610Z,88.08
2022-08-17T00:58:52.538Z,87.85
2022-08-17T01:03:58.124Z,88.08
2022-08-17T01:09:08.775Z,87.76
2022-08-17T01:14:13.822Z,88.32
2022-08-17T01:19:21.862Z,87.70
2022-08-17T01:24:29.817Z,88.92
2022-08-17T01:29:35.016Z,88.54
2022-08-17T01:34:43.882Z,88.23
2022-08-17T01:40:03.011Z,88.22
2022-08-17T01:45:12.141Z,88.44
2022-08-17T01:50:20.066Z,88.53
2022-08-17T01:55:36.595Z,89.09
2022-08-17T02:00:59.346Z,88.64
2022-08-17T02:06:27.008Z,91.17
2022-08-17T02:11:38.484Z,91.12
2022-08-17T02:16:44.264Z,90.83
2022-08-17T02:21:51.025Z,91.08
2022-08-17T02:26:58.522Z,91.57
2022-08-17T02:32:03.444Z,90.65
2022-08-17T02:37:08.707Z,91.24
2022-08-17T02:42:17.292Z,92.28
2022-08-17T02:47:22.319Z,92.75
2022-08-17T02:52:42.496Z,92.72
2022-08-17T02:57:59.423Z,93.59
2022-08-17T03:03:05.372Z,93.76
2022-08-17T03:08:13.261Z,94.97
2022-08-17T03:13:21.241Z,96.00
2022-08-17T03:18:28.091Z,96.11
2022-08-17T03:23:34.492Z,95.69
2022-08-17T03:28:42.306Z,96.53
2022-08-17T03:33:47.409Z,97.63
2022-08-17T03:38:52.359Z,98.29
2022-08-17T03:44:00.000Z,98.94
2022-08-17T03:49:17.487Z,97.87
2022-08-17T03:54:35.856Z,98.64
2022-08-17T03:59:45.004Z,100.00
2022-08-17T04:04:52.674Z,100.00
2022-08-17T04:09:58.333Z,100.00
2022-08-17T04:15:06.773Z,100.00
2022-08-17T04:20:13.344Z,100.00
2022-08-17T04:25:20.976Z,100.00
2022-08-17T04:30:29.703Z,97.43
2022-08-17T04:35:38.185Z,95.19
2022-08-17T04:40:55.906Z,92.53
2022-08-17T04:46:05.871Z,88.42
2022-08-17T04:51:14.854Z,89.64
2022-08-17T04:56:20.299Z,87.07
2022-08-17T05:01:29.638Z,89.14
2022-08-17T05:06:34.732Z,93.31
2022-08-17T05:11:39.886Z,93.28
2022-08-17T05:16:52.721Z,81.23
2022-08-17T05:21:57.656Z,74.17
2022-08-17T05:27:06.037Z,69.61
2022-08-17T05:32:38.289Z,71.26
2022-08-17T05:37:41.301Z,68.82
2022-08-17T05:42:46.753Z,64.94
2022-08-17T05:47:54.350Z,64.43
2022-08-17T05:53:06.793Z,65.98
2022-08-17T05:58:23.109Z,74.22
2022-08-17T06:03:41.816Z,71.17
2022-08-17T06:08:54.221Z,67.94
2022-08-17T06:14:22.451Z,62.69
2022-08-17T06:19:36.816Z,65.81
2022-08-17T06:24:46.678Z,64.21
2022-08-17T06:29:56.830Z,66.19
2022-08-17T06:35:07.113Z,58.96
2022-08-17T06:40:29.256Z,57.14
2022-08-17T06:45:38.811Z,56.99
2022-08-17T06:50:53.637Z,52.46
2022-08-17T06:56:04.598Z,53.21
2022-08-17T07:01:14.270Z,49.65
2022-08-17T07:06:25.251Z,48.73
2022-08-17T07:11:37.047Z,48.33
2022-08-17T07:16:46.619Z,47.07
2022-08-17T07:22:03.275Z,48.05
2022-08-17T07:27:13.314Z,49.91
2022-08-17T07:32:22.966Z,54.24
2022-08-17T07:37:32.448Z,54.85
2022-08-17T07:42:40.706Z,54.33
2022-08-17T07:48:05.924Z,51.32
2022-08-17T07:53:23.215Z,50.84
2022-08-17T07:58:28.360Z,53.44
2022-08-17T08:03:34.914Z,53.25
2022-08-17T08:08:47.316Z,52.73
2022-08-17T08:13:52.790Z,51.89
2022-08-17T08:19:00.219Z,51.03
2022-08-17T08:24:23.372Z,53.50
2022-08-17T08:29:39.791Z,53.59
2022-08-17T08:35:02.672Z,50.25
2022-08-17T08:40:23.092Z,48.83
2022-08-17T08:45:36.141Z,48.07
2022-08-17T08:50:48.953Z,50.10
2022-08-17T08:56:01.355Z,48.63
2022-08-17T09:01:16.980Z,50.39
2022-08-17T09:06:40.167Z,49.93
2022-08-17T09:12:02.024Z,49.59
2022-08-17T09:17:18.912Z,48.40
2022-08-17T09:22:33.720Z,49.05
2022-08-17T09:27:53.324Z,46.58
2022-08-17T09:33:02.542Z,47.63
2022-08-17T09:38:17.699Z,47.71
2022-08-17T09:43:33.456Z,47.86
2022-08-17T09:48:44.635Z,48.18
2022-08-17T09:53:50.390Z,47.84
2022-08-17T09:59:14.153Z,47.29
2022-08-17T10:04:39.834Z,45.60
2022-08-17T10:10:00.234Z,47.07
2022-08-17T10:15:18.983Z,48.00
2022-08-17T10:20:33.523Z,47.93
2022-08-17T10:25:55.508Z,46.52
2022-08-17T10:36:46.342Z,45.65
2022-08-17T10:41:56.110Z,44.69
2022-08-17T10:47:11.821Z,46.99
2022-08-17T10:52:46.686Z,46.19
2022-08-17T10:57:54.962Z,46.88
2022-08-17T11:03:02.557Z,45.05
2022-08-17T11:08:29.296Z,47.29
2022-08-17T11:13:41.435Z,47.55
2022-08-17T11:19:14.107Z,47.73
2022-08-17T11:24:25.151Z,48.69
2022-08-17T11:29:37.417Z,47.52
2022-08-17T11:34:47.421Z,46.97
2022-08-17T11:40:26.052Z,48.51
2022-08-17T11:45:45.330Z,47.80
2022-08-17T11:51:12.970Z,46.65
2022-08-17T11:56:46.530Z,45.67
2022-08-17T12:01:57.253Z,46.16
2022-08-17T12:07:13.056Z,46.72
2022-08-17T12:12:22.546Z,46.99
2022-08-17T12:17:40.938Z,47.66
2022-08-17T12:23:04.194Z,48.71
2022-08-17T12:28:24.843Z,48.17
2022-08-17T12:33:30.495Z,47.56
2022-08-17T12:38:41.946Z,46.53
2022-08-17T12:43:47.029Z,47.55
2022-08-17T12:48:59.696Z,48.51
2022-08-17T12:54:07.921Z,47.14
2022-08-17T12:59:15.500Z,46.76
2022-08-17T13:04:34.762Z,46.17
2022-08-17T13:09:42.330Z,46.83
2022-08-17T13:14:48.567Z,47.15
2022-08-17T13:19:54.455Z,46.86
2022-08-17T13:25:07.574Z,46.87
2022-08-17T13:30:17.723Z,48.59
2022-08-17T13:35:50.328Z,48.22
2022-08-17T13:40:58.046Z,48.20
2022-08-17T13:46:11.687Z,48.49
2022-08-17T13:51:22.845Z,47.95
2022-08-17T13:56:39.684Z,47.39
2022-08-17T14:01:53.537Z,47.16
2022-08-17T14:07:02.905Z,47.93
2022-08-17T14:12:15.540Z,47.75
2022-08-17T14:17:20.650Z,48.29
2022-08-17T14:22:30.617Z,47.93
2022-08-17T14:27:41.627Z,48.34
2022-08-17T14:32:58.480Z,48.25
2022-08-17T14:38:09.166Z,48.93
2022-08-17T14:43:17.978Z,48.82
2022-08-17T14:48:23.100Z,48.50
2022-08-17T14:53:28.085Z,49.00
2022-08-17T14:58:35.723Z,49.04
2022-08-17T15:03:43.974Z,49.27
2022-08-17T15:08:49.044Z,47.81
2022-08-17T15:13:56.649Z,48.56
2022-08-17T15:19:01.575Z,48.48
2022-08-17T15:24:06.634Z,48.73
2022-08-17T15:29:14.747Z,48.41
2022-08-17T15:34:20.259Z,48.38
2022-08-17T15:39:25.283Z,48.50
2022-08-17T15:44:35.112Z,48.88
2022-08-17T15:49:42.337Z,49.07
2022-08-17T15:54:55.542Z,48.49
2022-08-17T16:00:05.666Z,48.59
2022-08-17T16:05:24.205Z,48.39
2022-08-17T16:10:35.257Z,48.14
2022-08-17T16:15:43.614Z,48.39
2022-08-17T16:20:48.582Z,48.92
2022-08-17T16:25:54.545Z,49.20
2022-08-17T16:31:02.232Z,49.32
2022-08-17T16:36:07.778Z,49.33
2022-08-17T16:41:12.754Z,49.53
2022-08-17T16:46:20.283Z,49.80
2022-08-17T16:51:25.187Z,50.11
2022-08-17T16:56:32.851Z,50.09
2022-08-17T17:01:41.880Z,50.69
2022-08-17T17:07:01.155Z,50.52
2022-08-17T17:12:10.995Z,50.61
2022-08-17T17:17:27.735Z,51.05
2022-08-17T17:22:41.160Z,51.52
2022-08-17T17:27:54.254Z,52.13
2022-08-17T17:33:08.039Z,51.89
2022-08-17T17:38:18.254Z,52.13
2022-08-17T17:43:44.881Z,53.14
2022-08-17T17:48:52.718Z,53.58
2022-08-17T17:54:02.759Z,54.06
2022-08-17T17:59:15.142Z,54.06
2022-08-17T18:04:36.345Z,54.99
2022-08-17T18:10:02.739Z,55.99
2022-08-17T18:15:24.399Z,55.86
2022-08-17T18:20:43.391Z,56.61
2022-08-17T18:26:01.572Z,56.65
2022-08-17T18:31:18.479Z,57.24
2022-08-17T18:36:33.707Z,57.47
2022-08-17T18:41:44.229Z,58.15
2022-08-17T18:46:49.046Z,58.16
2022-08-17T18:52:13.885Z,58.24
2022-08-17T18:57:33.183Z,59.34
2022-08-17T19:02:50.815Z,59.79
2022-08-17T19:08:20.325Z,60.48
2022-08-17T19:13:31.288Z,59.79
2022-08-17T19:18:41.618Z,60.77
2022-08-17T19:23:54.757Z,60.88
2022-08-17T19:29:02.788Z,61.46
2022-08-17T19:34:07.856Z,61.29
2022-08-17T19:39:26.450Z,61.72
2022-08-17T19:44:54.769Z,62.31
2022-08-17T19:50:07.220Z,62.83
2022-08-17T19:55:23.965Z,63.88
2022-08-17T20:00:31.110Z,64.00
2022-08-17T20:06:08.576Z,64.02
2022-08-17T20:11:12.994Z,64.08
2022-08-17T20:16:19.822Z,64.46
2022-08-17T20:21:30.126Z,64.48
2022-08-17T20:26:49.102Z,66.44
2022-08-17T20:32:22.046Z,67.65
2022-08-17T20:37:34.366Z,68.15
2022-08-17T20:42:41.877Z,68.07
